KFBG/FBG METAR and TAF weather

Enter ICAO airport designator
Station Type Date Time Source
KFBG METAR 2019/06/19 01:56 UTC NOAA

KFBG 190156Z AUTO 16007KT 10SM CLR 27/21 A2993 RMK AO2 SLP136 T02690212 $


Station Type Date Time Source
KFBG Decoded METAR 2019/06/19 01:56 UTC NOAA

Fort Bragg / Simmons Army Airfield, NC, United States (KFBG) 35-08N 078-56W 74M
Jun 18, 2019 - 09:56 PM EDT / 2019.06.19 0156 UTC
Wind: from the SSE (160 degrees) at 8 MPH (7 KT):0
Visibility: 10 mile(s):0
Sky conditions: clear
Temperature: 80.4 F (26.9 C)
Dew Point: 70.2 F (21.2 C)
Relative Humidity: 71%
Pressure (altimeter): 29.93 in. Hg (1013 hPa)
ob: KFBG 190156Z AUTO 16007KT 10SM CLR 27/21 A2993 RMK AO2 SLP136 T02690212
cycle: 2

Station Type Date Time Source
KFBG TAF 2019/06/19 01:06 UTC NOAA

TAF KFBG 190100Z 1901/2007 23012KT 9999 SCT040 BKN120 QNH2988INS
BECMG 1903/1904 16006KT 9999 SCT025 BKN040 OVC080 QNH2986INS
BECMG 1905/1906 20008KT 8000 -SHRA BR SCT010 BKN020 OVC060 QNH2980INS
BECMG 1908/1909 20006KT 8000 BR BKN010 OVC020 QNH2980INS
BECMG 1914/1915 24009KT 9999 NSW SCT020 BKN060 QNH2978INS
BECMG 1918/1919 25012KT 8000 -SHRA SCT025 BKN040 QNH2972INS
TEMPO 1920/1923 VRB12G18KT 8000 -TSRA BKN025CB
BECMG 1923/1924 20006KT 9999 NSW BKN025 BKN040 QNH2970INS TX31/1920Z TN23/1910Z

Example: see airport list